Data for 03/31/2007

Time Sea-Level Adjusted Pressure Absolute Pressure Temperature Relative Humidity Dew Point   
(mb) (inHg) (mb) (inHg) (C) (F) (%) (C) (F)
00:05 1015 29.97 844 24.92 6.8 44.3 39 -6.3 20.6
00:10 1015 29.97 844 24.92 6.6 43.9 42 -5.5 22
00:15 1015 29.97 844 24.92 6.2 43.2 42 -5.6 21.9
00:20 1015 29.97 844 24.92 6.2 43.2 43 -5.6 21.9
00:25 1015 29.97 844 24.92 6.2 43.1 43 -5.5 22.1
00:30 1015 29.97 844 24.92 6.3 43.3 45 -4.9 23.2
00:35 1014 29.94 844 24.92 6.3 43.3 45 -4.9 23.2
00:40 1014 29.94 844 24.92 6.2 43.2 46 -4.7 23.6
00:45 1014 29.94 844 24.92 5.8 42.4 50 -3.9 25.1
00:50 1014 29.94 844 24.92 5.3 41.6 51 -4 24.8
00:55 1014 29.94 844 24.92 4.9 40.8 59 -2.5 27.5
01:00 1014 29.94 844 24.92 4.4 40 58 -3.1 26.4
01:05 1014 29.94 844 24.92 4.7 40.5 57 -3.2 26.3
01:10 1014 29.94 844 24.92 4.6 40.3 57 -3.1 26.4
01:15 1014 29.94 844 24.92 4.4 40 58 -3.2 26.3
01:20 1014 29.94 844 24.92 4.3 39.7 58 -3.2 26.3
01:25 1014 29.94 844 24.92 4.2 39.5 59 -3.2 26.3
01:30 1014 29.94 844 24.92 4.2 39.6 60 -2.9 26.7
01:35 1014 29.94 844 24.92 4 39.2 60 -3 26.6
01:40 1014 29.94 844 24.92 3.8 38.9 61 -2.9 26.8
01:45 1014 29.94 843 24.89 3.5 38.3 64 -2.8 27
01:50 1014 29.94 843 24.89 3.3 38 64 -2.8 27
01:55 1014 29.94 843 24.89 3.3 38 64 -2.8 26.9
02:00 1014 29.94 843 24.89 3.4 38.2 62 -3.1 26.5
02:05 1014 29.94 843 24.89 3.6 38.5 62 -3.1 26.4
02:10 1014 29.94 843 24.89 3.7 38.7 62 -3 26.6
02:15 1014 29.94 843 24.89 3.6 38.6 61 -3.1 26.4
02:20 1014 29.94 843 24.89 3.5 38.4 61 -3.2 26.2
02:25 1014 29.94 843 24.89 3.6 38.5 61 -3.2 26.3
02:30 1014 29.94 843 24.89 3.8 38.9 58 -3.8 25.2
02:35 1014 29.94 843 24.89 4 39.2 58 -3.5 25.7
02:40 1014 29.94 843 24.89 3.8 38.8 58 -3.8 25.2
02:45 1014 29.94 843 24.89 3.8 38.9 59 -3.5 25.6
02:50 1014 29.94 843 24.89 3.6 38.6 59 -3.7 25.4
02:55 1014 29.94 843 24.89 3.8 38.8 57 -4 24.7
03:00 1014 29.94 843 24.89 3.9 39 56 -4 24.8
03:05 1014 29.94 843 24.89 3.9 39.1 56 -4 24.9
03:10 1014 29.94 843 24.89 3.8 38.8 58 -3.8 25.1
03:15 1014 29.94 843 24.89 3.7 38.6 57 -4 24.9
03:20 1014 29.94 843 24.89 3.9 39 56 -4 24.8
03:25 1014 29.94 843 24.89 3.9 39.1 58 -3.6 25.6
03:30 1014 29.94 843 24.89 3.6 38.5 59 -3.7 25.3
03:35 1014 29.94 843 24.89 3.5 38.4 58 -4 24.8
03:40 1014 29.94 843 24.89 3.5 38.4 58 -4 24.9
03:45 1014 29.94 843 24.89 3.5 38.2 59 -3.7 25.3
03:50 1014 29.94 843 24.89 3.2 37.8 61 -3.7 25.4
03:55 1014 29.94 843 24.89 3 37.5 62 -3.5 25.7
04:00 1014 29.94 843 24.89 2.7 36.9 62 -3.8 25.2
04:05 1014 29.94 843 24.89 2.8 37.1 62 -3.7 25.3
04:10 1014 29.94 843 24.89 2.6 36.6 64 -3.6 25.5
04:15 1014 29.94 843 24.89 2.5 36.5 61 -4.1 24.5
04:20 1014 29.94 843 24.89 3 37.4 59 -4.2 24.4
04:25 1014 29.94 843 24.89 3 37.4 60 -4.1 24.6
04:30 1014 29.94 843 24.89 3 37.4 61 -3.8 25.2
04:35 1014 29.94 843 24.89 2.9 37.3 62 -3.6 25.6
04:40 1014 29.94 843 24.89 2.8 37 62 -3.8 25.2
04:45 1014 29.94 843 24.89 2.9 37.2 61 -4 24.8
04:50 1014 29.94 843 24.89 3.2 37.8 59 -4 24.8
04:55 1014 29.94 843 24.89 3.4 38.1 58 -4 24.8
05:00 1014 29.94 843 24.89 3.5 38.3 58 -4 24.9
05:05 1014 29.94 843 24.89 3.5 38.2 57 -4.3 24.2
05:10 1014 29.94 843 24.89 3.6 38.5 59 -3.8 25.2
05:15 1014 29.94 843 24.89 3.2 37.7 62 -3.4 25.9
05:20 1014 29.94 843 24.89 2.8 37 64 -3.3 26
05:25 1014 29.94 843 24.89 2.6 36.7 63 -3.6 25.5
05:30 1014 29.94 843 24.89 2.7 36.9 63 -3.7 25.4
05:35 1014 29.94 843 24.89 3 37.4 60 -3.9 24.9
05:40 1014 29.94 843 24.89 3.2 37.8 59 -4.1 24.6
05:45 1014 29.94 843 24.89 3.5 38.2 54 -4.9 23.2
05:50 1014 29.94 843 24.89 4.1 39.3 50 -5.5 22
05:55 1014 29.94 843 24.89 4.2 39.6 54 -4.2 24.4
06:00 1014 29.94 843 24.89 3.5 38.4 59 -3.7 25.4
06:05 1014 29.94 843 24.89 2.6 36.8 63 -3.6 25.5
06:10 1014 29.94 843 24.89 2.3 36.2 65 -3.6 25.5
06:15 1014 29.94 844 24.92 2.3 36.1 64 -3.8 25.2
06:20 1014 29.94 844 24.92 2.1 35.8 65 -3.9 25
06:25 1014 29.94 844 24.92 2.2 35.9 65 -3.8 25.2
06:30 1014 29.94 844 24.92 2.2 36 67 -3.3 26.1
06:35 1014 29.94 843 24.89 2.5 36.5 64 -3.7 25.4
06:40 1014 29.94 843 24.89 2.6 36.8 63 -3.7 25.3
06:45 1014 29.94 843 24.89 2.4 36.4 63 -3.8 25.1
06:50 1014 29.94 843 24.89 2.6 36.7 59 -4.6 23.8
06:55 1014 29.94 844 24.92 3.3 37.9 54 -5.3 22.5
07:00 1014 29.94 844 24.92 4 39.2 49 -5.6 21.9
07:05 1014 29.94 844 24.92 4 39.1 53 -4.9 23.3
07:10 1014 29.94 844 24.92 3.4 38.1 54 -5 23.1
07:15 1015 29.97 844 24.92 3.3 38 54 -5.1 22.8
07:20 1015 29.97 844 24.92 3.3 38 53 -5.3 22.4
07:25 1015 29.97 844 24.92 3.6 38.4 51 -5.7 21.8
07:30 1015 29.97 844 24.92 4 39.1 48 -6.1 21
07:35 1015 29.97 844 24.92 4.4 40 46 -6.2 20.8
07:40 1015 29.97 844 24.92 4.5 40.2 46 -6 21.3
07:45 1015 29.97 844 24.92 4.5 40.2 47 -5.9 21.4
07:50 1015 29.97 844 24.92 4.6 40.2 51 -4.8 23.3
07:55 1015 29.97 844 24.92 4.3 39.7 47 -6 21.2
08:00 1015 29.97 844 24.92 4.6 40.3 46 -6 21.2
08:05 1015 29.97 844 24.92 4.9 40.8 48 -5.3 22.5
08:10 1015 29.97 844 24.92 4.9 40.9 48 -5.1 22.9
08:15 1015 29.97 844 24.92 4.6 40.2 50 -4.9 23.1
08:20 1015 29.97 844 24.92 4.4 40 50 -5.2 22.6
08:25 1015 29.97 844 24.92 4.8 40.7 49 -4.9 23.2
08:30 1015 29.97 844 24.92 4.7 40.4 48 -5.5 22.2
08:35 1015 29.97 844 24.92 5 41 49 -4.9 23.2
08:40 1015 29.97 844 24.92 5.4 41.7 50 -4.3 24.2
08:45 1015 29.97 844 24.92 5.6 42 52 -3.6 25.5
08:50 1015 29.97 844 24.92 5.4 41.6 53 -3.6 25.6
08:55 1015 29.97 844 24.92 5.4 41.7 55 -3 26.6
09:00 1015 29.97 844 24.92 5.4 41.8 53 -3.5 25.7
09:05 1015 29.97 844 24.92 6 42.9 51 -3.4 25.9
09:10 1015 29.97 844 24.92 6.5 43.8 50 -3.2 26.2
09:15 1015 29.97 844 24.92 6.8 44.2 50 -2.9 26.8
09:20 1015 29.97 844 24.92 6.8 44.3 51 -2.5 27.5
09:25 1015 29.97 844 24.92 7.1 44.8 42 -4.9 23.2
09:30 1015 29.97 844 24.92 7.4 45.4 36 -6.6 20.2
09:35 1015 29.97 844 24.92 7.6 45.7 41 -4.8 23.3
09:40 1015 29.97 844 24.92 7.9 46.1 43 -3.8 25.2
09:45 1015 29.97 844 24.92 7.3 45.2 48 -3 26.6
09:50 1015 29.97 844 24.92 6.7 44.1 47 -3.8 25.2
09:55 1015 29.97 844 24.92 6.9 44.4 44 -4.5 23.9
10:00 1015 29.97 844 24.92 7 44.6 43 -4.8 23.3
10:05 1015 29.97 844 24.92 7.1 44.8 43 -4.7 23.5
10:10 1015 29.97 844 24.92 7.5 45.5 40 -5.1 22.8
10:15 1015 29.97 844 24.92 7.9 46.1 39 -5.2 22.6
10:20 1015 29.97 844 24.92 8.4 47 39 -4.6 23.7
10:25 1015 29.97 844 24.92 8.5 47.2 38 -5 22.9
10:30 1015 29.97 844 24.92 8.7 47.7 37 -5.3 22.5
10:35 1015 29.97 844 24.92 8.8 47.8 34 -6.3 20.7
10:40 1015 29.97 844 24.92 9 48.1 33 -6.2 20.8
10:45 1015 29.97 844 24.92 9.2 48.5 32 -6.8 19.8
10:50 1015 29.97 844 24.92 9.3 48.8 33 -6.3 20.7
10:55 1015 29.97 844 24.92 9.8 49.6 31 -6.4 20.5
11:00 1014 29.94 844 24.92 9.9 49.9 31 -6.5 20.3
11:05 1014 29.94 844 24.92 10.6 51.1 31 -5.8 21.5
11:10 1014 29.94 843 24.89 10 50 33 -5.5 22.1
11:15 1014 29.94 843 24.89 10.2 50.3 31 -6.2 20.9
11:20 1014 29.94 843 24.89 10.7 51.2 32 -5.3 22.4
11:25 1014 29.94 843 24.89 11.4 52.5 29 -6 21.2
11:30 1014 29.94 843 24.89 10.9 51.6 32 -5.3 22.5
11:35 1014 29.94 843 24.89 10.5 51 32 -5.6 21.8
11:40 1014 29.94 843 24.89 11 51.7 31 -5.5 22.2
11:45 1014 29.94 843 24.89 11.2 52.2 30 -5.8 21.5
11:50 1014 29.94 843 24.89 11.5 52.6 31 -5.2 22.7
11:55 1014 29.94 843 24.89 11.7 53 30 -5.2 22.7
12:00 1014 29.94 843 24.89 11.7 53 30 -5.3 22.5
12:05 1014 29.94 843 24.89 11.9 53.5 30 -5.2 22.6
12:10 1014 29.94 843 24.89 11.2 52.1 30 -5.6 22
12:15 1014 29.94 843 24.89 11.3 52.4 31 -5.1 22.9
12:20 1014 29.94 843 24.89 11 51.9 31 -5.2 22.6
12:25 1013 29.91 843 24.89 11.5 52.6 30 -5.3 22.4
12:30 1013 29.91 843 24.89 12.1 53.8 30 -5 23
12:35 1013 29.91 843 24.89 12.1 53.8 30 -4.8 23.4
12:40 1013 29.91 843 24.89 12 53.6 30 -4.9 23.1
12:45 1013 29.91 842 24.86 12.5 54.4 29 -5 23
12:50 1013 29.91 842 24.86 12.6 54.8 29 -4.7 23.5
12:55 1013 29.91 842 24.86 12 53.7 29 -5.3 22.4
13:00 1013 29.91 842 24.86 11.9 53.3 30 -5.3 22.4
13:05 1013 29.91 842 24.86 12.2 54 28 -5.8 21.5
13:10 1013 29.91 842 24.86 12.1 53.8 28 -5.7 21.7
13:15 1013 29.91 842 24.86 11.5 52.8 29 -5.8 21.6
13:20 1013 29.91 842 24.86 11.6 52.9 29 -5.8 21.5
13:25 1013 29.91 842 24.86 11.6 52.8 29 -5.8 21.5
13:30 1013 29.91 842 24.86 11.4 52.6 29 -5.8 21.5
13:35 1013 29.91 842 24.86 11.3 52.3 30 -5.8 21.5
13:40 1013 29.91 842 24.86 11.3 52.4 29 -6 21.2
13:45 1013 29.91 842 24.86 11.6 52.8 29 -5.6 21.9
13:50 1013 29.91 842 24.86 11.7 53.1 29 -5.7 21.8
13:55 1013 29.91 842 24.86 11.5 52.8 29 -5.9 21.4
14:00 1013 29.91 842 24.86 11.5 52.7 28 -6.4 20.5
14:05 1013 29.91 842 24.86 11.6 52.9 28 -6.5 20.3
14:10 1013 29.91 842 24.86 11.9 53.4 28 -5.8 21.5
14:15 1013 29.91 842 24.86 11.8 53.3 28 -6.1 21
14:20 1013 29.91 842 24.86 11.7 53.1 28 -6 21.1
14:25 1013 29.91 842 24.86 11.6 52.9 29 -5.9 21.4
14:30 1012 29.88 842 24.86 12.1 53.8 28 -6 21.3
14:35 1012 29.88 842 24.86 11.8 53.3 27 -6.5 20.3
14:40 1012 29.88 842 24.86 11.2 52.2 28 -6.5 20.3
14:45 1012 29.88 842 24.86 11 51.9 29 -6.3 20.7
14:50 1012 29.88 842 24.86 11.3 52.4 29 -6.1 20.9
14:55 1012 29.88 842 24.86 11.6 52.9 28 -6.3 20.7
15:00 1012 29.88 842 24.86 11.5 52.6 29 -6 21.3
15:05 1012 29.88 841 24.83 12.1 53.8 28 -5.7 21.7
15:10 1012 29.88 841 24.83 13.1 55.5 27 -5.5 22.1
15:15 1012 29.88 841 24.83 12.8 55.1 27 -5.6 21.9
15:20 1012 29.88 841 24.83 11.8 53.2 29 -5.4 22.3
15:25 1012 29.88 841 24.83 11.7 53 29 -5.8 21.6
15:30 1012 29.88 841 24.83 11.6 52.9 29 -5.9 21.3
15:35 1012 29.88 841 24.83 11.7 53.1 30 -5.4 22.2
15:40 1012 29.88 841 24.83 12 53.6 29 -5.7 21.8
15:45 1012 29.88 841 24.83 12.1 53.9 29 -5.2 22.6
15:50 1012 29.88 841 24.83 11.7 53.1 29 -5.5 22.1
15:55 1012 29.88 841 24.83 11.5 52.6 29 -5.9 21.4
16:00 1012 29.88 841 24.83 11.7 53 29 -5.6 22
16:05 1012 29.88 841 24.83 12 53.5 29 -5.6 21.8
16:10 1012 29.88 841 24.83 12 53.6 29 -5.4 22.3
16:15 1012 29.88 841 24.83 11.9 53.4 29 -5.5 22.1
16:20 1012 29.88 841 24.83 11.8 53.2 29 -5.7 21.7
16:25 1012 29.88 841 24.83 11.8 53.2 30 -5.4 22.4
16:30 1012 29.88 841 24.83 11.8 53.2 28 -5.9 21.3
16:35 1012 29.88 841 24.83 11.7 53 29 -5.7 21.7
16:40 1012 29.88 841 24.83 11.9 53.4 28 -5.9 21.3
16:45 1012 29.88 841 24.83 11.6 52.8 28 -6.1 21
16:50 1012 29.88 841 24.83 11.7 53 29 -5.9 21.3
16:55 1012 29.88 841 24.83 11.5 52.7 29 -5.9 21.4
17:00 1012 29.88 841 24.83 11.5 52.7 29 -5.8 21.5
17:05 1012 29.88 841 24.83 11.6 52.9 29 -6 21.3
17:10 1012 29.88 841 24.83 11.6 52.9 28 -6.1 21
17:15 1012 29.88 841 24.83 11.7 53 29 -5.7 21.7
17:20 1012 29.88 841 24.83 11.8 53.2 29 -5.7 21.7
17:25 1012 29.88 841 24.83 11.8 53.3 28 -5.9 21.3
17:30 1012 29.88 841 24.83 12 53.6 28 -5.8 21.5
17:35 1012 29.88 841 24.83 12 53.6 28 -5.9 21.4
17:40 1012 29.88 841 24.83 11.9 53.5 28 -5.7 21.7
17:45 1012 29.88 841 24.83 11.9 53.4 28 -5.9 21.5
17:50 1012 29.88 841 24.83 12 53.5 28 -5.8 21.6
17:55 1012 29.88 841 24.83 12 53.6 28 -6.1 21.1
18:00 1012 29.88 841 24.83 11.8 53.3 28 -5.9 21.5
18:05 1012 29.88 841 24.83 11.8 53.2 28 -5.9 21.4
18:10 1011 29.85 841 24.83 12 53.6 28 -6.1 21
18:15 1011 29.85 841 24.83 12.2 54 27 -6.2 20.8
18:20 1011 29.85 841 24.83 12.3 54.1 27 -6 21.2
18:25 1011 29.85 841 24.83 12.1 53.8 27 -6.1 21
18:30 1011 29.85 841 24.83 11.8 53.2 28 -6 21.1
18:35 1011 29.85 841 24.83 11.7 53 28 -6.1 21.1
18:40 1011 29.85 841 24.83 11.8 53.2 28 -5.9 21.3
18:45 1011 29.85 841 24.83 11.6 52.9 29 -6 21.2
18:50 1011 29.85 841 24.83 11.6 52.9 29 -5.7 21.8
18:55 1011 29.85 841 24.83 11.5 52.6 30 -5.6 22
19:00 1011 29.85 841 24.83 11.3 52.4 30 -5.5 22.1
19:05 1011 29.85 840 24.81 11.2 52.2 31 -5.4 22.3
19:10 1011 29.85 840 24.81 11.1 52.1 31 -5.5 22.2
19:15 1011 29.85 840 24.81 11 51.8 31 -5.5 22.2
19:20 1011 29.85 840 24.81 10.8 51.5 31 -5.6 21.9
19:25 1011 29.85 840 24.81 10.8 51.4 31 -5.4 22.2
19:30 1011 29.85 840 24.81 10.8 51.4 32 -5.2 22.7
19:35 1011 29.85 840 24.81 10.6 51.1 32 -5.2 22.7
19:40 1011 29.85 840 24.81 10.5 50.8 33 -5.2 22.7
19:45 1011 29.85 840 24.81 10.4 50.7 33 -5 23
19:50 1011 29.85 840 24.81 10.3 50.6 35 -4.6 23.7
19:55 1011 29.85 840 24.81 10.1 50.1 36 -4.3 24.2
20:00 1011 29.85 840 24.81 9.1 48.5 42 -2.9 26.7
20:05 1011 29.85 840 24.81 8.5 47.2 46 -2.4 27.6
20:10 1011 29.85 840 24.81 8 46.4 48 -2.3 27.8
20:15 1011 29.85 840 24.81 7.9 46.1 48 -2.4 27.6
20:20 1011 29.85 840 24.81 7.7 45.9 49 -2.3 27.8
20:25 1011 29.85 840 24.81 7.7 45.8 49 -2.3 27.8
20:30 1011 29.85 840 24.81 7.6 45.6 49 -2.4 27.7
20:35 1011 29.85 840 24.81 7.5 45.4 50 -2.4 27.8
20:40 1011 29.85 840 24.81 7.4 45.4 52 -1.8 28.8
20:45 1011 29.85 840 24.81 7.3 45.1 51 -2.2 28
20:50 1011 29.85 840 24.81 7.3 45.2 50 -2.4 27.7
20:55 1011 29.85 840 24.81 7.3 45.1 51 -2.1 28.3
21:00 1011 29.85 840 24.81 7.2 45 52 -2.1 28.2
21:05 1011 29.85 840 24.81 7.2 45 52 -2 28.4
21:10 1011 29.85 840 24.81 7.1 44.8 52 -2 28.4
21:15 1011 29.85 840 24.81 7.1 44.9 52 -2.1 28.1
21:20 1011 29.85 840 24.81 7.1 44.8 52 -2.1 28.2
21:25 1011 29.85 840 24.81 7.2 45 52 -2 28.4
21:30 1011 29.85 840 24.81 7.1 44.8 51 -2.3 27.9
21:35 1011 29.85 840 24.81 7.1 44.8 51 -2.3 27.9
21:40 1011 29.85 840 24.81 7.3 45.1 51 -2.1 28.3
21:45 1011 29.85 840 24.81 7.3 45.1 49 -2.6 27.3
21:50 1011 29.85 840 24.81 7.4 45.3 48 -2.8 26.9
21:55 1011 29.85 840 24.81 7.8 46 46 -3.2 26.2
22:00 1011 29.85 840 24.81 8.3 47 41 -4.1 24.7
22:05 1011 29.85 840 24.81 8.7 47.7 41 -3.7 25.3
22:10 1011 29.85 840 24.81 8.8 47.8 42 -3.5 25.7
22:15 1011 29.85 840 24.81 8.7 47.7 42 -3.6 25.6
22:20 1011 29.85 840 24.81 8.4 47.2 42 -3.8 25.1
22:25 1011 29.85 840 24.81 8.3 46.9 44 -3.3 26
22:30 1011 29.85 840 24.81 8.1 46.6 45 -3 26.6
22:35 1010 29.83 840 24.81 7.8 46.1 48 -2.6 27.3
22:40 1010 29.83 840 24.81 7.6 45.6 47 -3 26.6
22:45 1010 29.83 840 24.81 7.4 45.4 47 -3.1 26.4
22:50 1010 29.83 840 24.81 7.3 45.2 48 -2.9 26.7
22:55 1010 29.83 840 24.81 7.1 44.8 49 -2.9 26.7
23:00 1010 29.83 839 24.78 7.2 44.9 47 -3.3 26
23:05 1010 29.83 839 24.78 7.2 45 47 -3.3 26.1
23:10 1010 29.83 840 24.81 7.2 44.9 50 -2.6 27.3
23:15 1010 29.83 840 24.81 7.1 44.8 48 -3 26.6
23:20 1010 29.83 840 24.81 7.3 45.1 46 -3.5 25.7
23:25 1011 29.85 840 24.81 7.2 45 53 -1.7 29
23:30 1011 29.85 840 24.81 6.5 43.8 54 -2.1 28.1
23:35 1011 29.85 840 24.81 6.6 43.9 54 -2.1 28.3
23:40 1011 29.85 840 24.81 6.8 44.2 54 -2 28.4
23:45 1011 29.85 840 24.81 6.6 43.9 56 -1.6 29.1
23:50 1011 29.85 840 24.81 6.4 43.4 57 -1.6 29.2
23:55 1011 29.85 840 24.81 6.2 43.2 57 -1.7 28.9
24:00 1011 29.85 840 24.81 6.3 43.3 55 -1.9 28.5